Time;durP1;ratioP1;P1;durP2;ratioP2;P2;SDS_P1;SDS_P2;PMS_P1;PMS_P2;Temp;Humidity;BMP_temperature;BMP_pressure;BME280_temperature;BME280_humidity;BME280_pressure;Samples;Min_cycle;Max_cycle;Signal;HPM_P1;HPM_P2
2023/03/28 00:01:05;;;;;;;4.38;2.15;;;20.40;70.90;;;;;;5077275;28;20198;-61
2023/03/28 00:03:34;;;;;;;4.43;1.95;;;20.30;71.60;;;;;;5072073;28;20227;-61
2023/03/28 00:06:01;;;;;;;2.00;1.55;;;20.30;70.80;;;;;;5062548;28;20207;-59
2023/03/28 00:08:28;;;;;;;3.50;2.30;;;20.30;70.80;;;;;;5063298;28;20191;-59
2023/03/28 00:11:02;;;;;;;1.90;1.60;;;20.30;70.80;;;;;;5071381;28;20245;-62
2023/03/28 00:13:29;;;;;;;2.88;1.42;;;20.30;70.70;;;;;;5063603;28;20293;-61
2023/03/28 00:16:01;;;;;;;4.03;2.58;;;20.30;70.70;;;;;;5076463;28;20286;-60
2023/03/28 00:18:28;;;;;;;2.45;1.75;;;20.30;70.80;;;;;;5072295;28;20199;-59
2023/03/28 00:20:57;;;;;;;2.97;1.77;;;20.30;70.80;;;;;;5069363;28;20309;-62
2023/03/28 00:23:24;;;;;;;2.17;1.42;;;20.30;70.70;;;;;;5071842;28;20324;-62
2023/03/28 00:25:51;;;;;;;2.22;1.45;;;20.30;70.80;;;;;;5057020;28;21243;-60
2023/03/28 00:28:17;;;;;;;2.72;1.55;;;20.30;70.70;;;;;;5063386;28;20543;-61
2023/03/28 00:30:44;;;;;;;2.08;1.35;;;20.30;70.80;;;;;;5071046;28;20267;-62
2023/03/28 00:33:11;;;;;;;2.13;1.90;;;20.30;70.70;;;;;;5069835;28;20211;-61
2023/03/28 00:35:37;;;;;;;2.90;1.70;;;20.30;70.80;;;;;;5062159;28;20194;-61
2023/03/28 00:38:05;;;;;;;1.52;1.42;;;20.30;70.80;;;;;;5064209;28;20194;-63
2023/03/28 00:40:37;;;;;;;2.78;1.77;;;20.30;70.70;;;;;;5063430;28;20209;-64
2023/03/28 00:43:04;;;;;;;2.58;1.65;;;20.30;70.70;;;;;;5067597;28;20298;-61
2023/03/28 00:45:31;;;;;;;2.15;1.55;;;20.20;70.60;;;;;;5066498;28;20198;-60
2023/03/28 00:48:02;;;;;;;2.38;1.95;;;20.20;70.70;;;;;;5064889;28;20283;-62
2023/03/28 00:50:30;;;;;;;1.98;1.48;;;20.20;70.70;;;;;;5069133;28;20282;-62
2023/03/28 00:53:00;;;;;;;3.90;1.65;;;20.20;70.60;;;;;;5072395;28;20675;-61
2023/03/28 00:55:34;;;;;;;2.92;1.65;;;20.20;70.70;;;;;;5072571;28;20207;-58
2023/03/28 00:58:02;;;;;;;3.38;1.63;;;20.20;70.60;;;;;;5066389;28;20201;-60
2023/03/28 01:00:31;;;;;;;3.90;1.60;;;20.20;70.60;;;;;;5070460;28;20241;-61
2023/03/28 01:03:00;;;;;;;3.15;1.60;;;20.20;70.60;;;;;;5063186;28;20679;-62
2023/03/28 01:05:28;;;;;;;3.63;2.17;;;20.20;70.60;;;;;;5066034;28;20273;-62
2023/03/28 01:08:01;;;;;;;2.15;1.25;;;20.20;70.50;;;;;;5069343;28;20202;-61
2023/03/28 01:10:31;;;;;;;1.95;1.48;;;20.20;71.30;;;;;;5063461;28;20662;-61
2023/03/28 01:13:00;;;;;;;2.30;1.65;;;20.20;70.60;;;;;;5062131;28;20293;-61
2023/03/28 01:15:28;;;;;;;2.50;1.85;;;20.20;70.70;;;;;;5063937;28;20655;-62
2023/03/28 01:17:56;;;;;;;2.95;1.55;;;20.20;70.50;;;;;;5056071;28;20202;-64
2023/03/28 01:20:48;;;;;;;3.38;1.35;;;20.20;70.50;;;;;;5070971;28;20256;-59
2023/03/28 01:23:42;;;;;;;3.63;1.90;;;20.20;70.50;;;;;;5062017;28;20690;-62
2023/03/28 01:26:41;;;;;;;3.05;1.90;;;20.20;70.60;;;;;;5063766;28;20202;-62
2023/03/28 01:30:00;;;;;;;2.55;1.65;;;20.20;70.60;;;;;;5073208;28;20202;-60
2023/03/28 01:32:50;;;;;;;2.05;1.23;;;20.20;70.50;;;;;;5066770;28;20655;-62
2023/03/28 01:35:47;;;;;;;2.65;1.40;;;20.20;70.50;;;;;;5065756;28;20255;-62
2023/03/28 01:38:20;;;;;;;2.20;1.70;;;20.10;70.40;;;;;;5029187;28;20203;-61
2023/03/28 01:40:54;;;;;;;2.97;1.35;;;20.10;70.40;;;;;;5066467;28;20202;-63
2023/03/28 01:43:32;;;;;;;2.13;1.52;;;20.20;70.50;;;;;;5067970;28;20198;-61
2023/03/28 01:46:06;;;;;;;1.70;1.40;;;20.20;70.50;;;;;;5062421;28;20191;-59
2023/03/28 01:48:42;;;;;;;1.65;1.23;;;20.20;70.40;;;;;;5067430;28;20555;-63
2023/03/28 01:51:14;;;;;;;1.40;1.10;;;20.20;70.50;;;;;;5064550;28;20775;-62
2023/03/28 01:53:45;;;;;;;3.28;1.48;;;20.20;70.40;;;;;;5070565;28;20728;-62
2023/03/28 01:56:21;;;;;;;3.30;1.75;;;20.10;70.30;;;;;;5070845;28;20209;-62
2023/03/28 01:58:54;;;;;;;1.67;1.35;;;20.10;70.30;;;;;;5058414;28;20206;-61
2023/03/28 02:01:25;;;;;;;2.30;1.70;;;20.10;70.30;;;;;;5074890;28;20191;-61
2023/03/28 02:03:57;;;;;;;2.05;1.35;;;20.10;70.40;;;;;;5070866;28;20242;-62
2023/03/28 02:06:27;;;;;;;1.75;1.20;;;20.10;70.40;;;;;;5063694;28;20199;-62
2023/03/28 02:08:57;;;;;;;2.67;1.45;;;20.10;70.30;;;;;;5065329;28;20198;-61
2023/03/28 02:11:26;;;;;;;2.45;1.50;;;20.10;70.30;;;;;;5066460;28;20191;-61
2023/03/28 02:13:57;;;;;;;2.17;1.30;;;20.10;70.40;;;;;;5064978;28;20289;-61
2023/03/28 02:16:25;;;;;;;3.03;1.60;;;20.10;70.40;;;;;;5066856;28;20260;-61
2023/03/28 02:18:58;;;;;;;1.60;1.30;;;20.10;70.30;;;;;;5068611;28;20241;-59
2023/03/28 02:21:31;;;;;;;3.05;1.48;;;20.10;70.30;;;;;;5068744;28;20202;-61
2023/03/28 02:23:59;;;;;;;1.95;1.42;;;20.10;70.30;;;;;;5070047;28;20222;-60
2023/03/28 02:26:27;;;;;;;2.45;1.30;;;20.10;70.30;;;;;;5070719;28;20187;-59
2023/03/28 02:28:56;;;;;;;1.67;1.33;;;20.10;70.20;;;;;;5068136;28;20322;-61
2023/03/28 02:31:24;;;;;;;3.30;1.90;;;20.10;70.20;;;;;;5066386;28;20207;-61
2023/03/28 02:33:52;;;;;;;1.75;1.35;;;20.10;70.10;;;;;;5066478;28;20202;-59
2023/03/28 02:36:31;;;;;;;1.63;1.20;;;20.10;70.20;;;;;;5062687;28;20670;-60
2023/03/28 02:39:17;;;;;;;4.25;1.67;;;20.10;70.10;;;;;;5071182;28;20206;-62
2023/03/28 02:41:57;;;;;;;2.58;1.60;;;20.10;70.10;;;;;;5062218;28;20198;-61
2023/03/28 02:44:37;;;;;;;2.90;1.10;;;20.10;70.10;;;;;;5076658;28;20267;-61
2023/03/28 02:47:13;;;;;;;2.67;1.40;;;20.20;70.20;;;;;;5068747;28;20199;-63
2023/03/28 02:49:49;;;;;;;2.30;1.30;;;20.20;70.20;;;;;;5070243;28;20206;-62
2023/03/28 02:52:29;;;;;;;2.78;1.23;;;20.20;70.20;;;;;;5065669;28;20387;-60
2023/03/28 02:55:02;;;;;;;2.78;1.30;;;20.20;70.20;;;;;;5066326;28;20229;-62
2023/03/28 02:57:33;;;;;;;1.88;1.00;;;20.20;70.20;;;;;;5067758;28;20194;-61
2023/03/28 03:00:11;;;;;;;1.85;1.30;;;20.20;70.20;;;;;;5068642;28;20194;-59
2023/03/28 03:02:39;;;;;;;2.28;1.50;;;20.20;70.10;;;;;;5066909;28;20226;-61
2023/03/28 03:05:08;;;;;;;3.75;1.63;;;20.20;70.30;;;;;;5067731;28;20268;-61
2023/03/28 03:07:36;;;;;;;1.80;1.48;;;20.20;70.30;;;;;;5068146;28;20682;-61
2023/03/28 03:10:05;;;;;;;1.55;1.33;;;20.20;71.00;;;;;;5067531;28;20736;-61
2023/03/28 03:12:32;;;;;;;2.97;1.25;;;20.20;70.20;;;;;;5065180;28;20202;-62
2023/03/28 03:15:00;;;;;;;1.30;1.00;;;20.20;70.20;;;;;;5065789;28;20205;-61
2023/03/28 03:17:27;;;;;;;2.88;1.15;;;20.20;70.30;;;;;;5059221;28;20210;-60
2023/03/28 03:19:54;;;;;;;1.73;1.05;;;20.20;70.20;;;;;;5072692;28;20206;-62
2023/03/28 03:22:21;;;;;;;2.03;1.25;;;20.20;70.20;;;;;;5060756;28;20214;-61
2023/03/28 03:24:49;;;;;;;1.85;1.15;;;20.20;70.20;;;;;;5063475;28;20219;-61
2023/03/28 03:27:17;;;;;;;1.92;1.25;;;20.10;70.10;;;;;;5063595;28;20556;-62
2023/03/28 03:29:44;;;;;;;2.42;1.35;;;20.10;70.00;;;;;;5062922;28;20252;-60
2023/03/28 03:32:11;;;;;;;1.92;1.23;;;20.10;70.00;;;;;;5068030;28;20253;-61
2023/03/28 03:34:40;;;;;;;1.40;1.20;;;20.10;70.10;;;;;;5068657;28;20279;-63
2023/03/28 03:37:07;;;;;;;2.05;1.10;;;20.10;70.00;;;;;;5065542;28;20305;-61
2023/03/28 03:39:35;;;;;;;2.10;1.30;;;20.10;70.10;;;;;;5072566;28;20667;-62
2023/03/28 03:42:02;;;;;;;1.40;1.10;;;20.10;70.00;;;;;;5064035;28;20286;-61
2023/03/28 03:44:30;;;;;;;2.25;1.20;;;20.10;70.10;;;;;;5068064;28;20703;-62
2023/03/28 03:46:57;;;;;;;1.40;1.23;;;20.10;70.10;;;;;;5065832;28;20659;-61
2023/03/28 03:49:24;;;;;;;3.08;2.05;;;20.10;70.00;;;;;;5062261;28;20289;-62
2023/03/28 03:51:51;;;;;;;3.08;1.00;;;20.10;70.10;;;;;;5068331;28;20229;-61
2023/03/28 03:54:17;;;;;;;1.60;1.25;;;20.10;70.10;;;;;;5066541;28;20199;-61
2023/03/28 03:56:44;;;;;;;1.45;1.15;;;20.10;70.00;;;;;;5062344;28;20540;-63
2023/03/28 03:59:11;;;;;;;2.83;1.48;;;20.10;70.00;;;;;;5068654;28;20563;-61
2023/03/28 04:01:40;;;;;;;1.25;1.00;;;20.10;70.10;;;;;;5066391;28;20919;-62
2023/03/28 04:04:07;;;;;;;1.65;1.05;;;20.10;70.10;;;;;;5067019;28;20217;-60
2023/03/28 04:06:34;;;;;;;1.50;1.00;;;20.10;70.00;;;;;;5065326;28;20332;-60
2023/03/28 04:09:00;;;;;;;1.25;1.05;;;20.10;70.00;;;;;;5068457;28;20332;-63
2023/03/28 04:11:27;;;;;;;1.98;1.00;;;20.10;70.00;;;;;;5073244;28;20190;-59
2023/03/28 04:13:54;;;;;;;1.60;1.50;;;20.10;70.00;;;;;;5071612;28;20708;-59
2023/03/28 04:16:22;;;;;;;1.88;1.17;;;20.10;70.10;;;;;;5076632;28;20231;-59
2023/03/28 04:18:51;;;;;;;1.60;1.20;;;20.10;70.10;;;;;;5078308;28;20199;-61
2023/03/28 04:21:20;;;;;;;1.20;1.10;;;20.10;70.00;;;;;;5070243;28;20639;-59
2023/03/28 04:23:47;;;;;;;1.92;1.55;;;20.10;70.00;;;;;;5070515;28;20199;-61
2023/03/28 04:26:19;;;;;;;1.73;1.00;;;20.10;70.00;;;;;;5066281;28;20231;-59
2023/03/28 04:28:46;;;;;;;1.55;1.00;;;20.10;70.00;;;;;;5065946;28;20550;-59
2023/03/28 04:31:13;;;;;;;1.73;1.10;;;20.10;70.00;;;;;;5069862;28;20205;-59
2023/03/28 04:33:39;;;;;;;2.08;1.40;;;20.10;70.00;;;;;;5070929;28;20199;-58
2023/03/28 04:36:10;;;;;;;1.40;1.10;;;20.10;70.00;;;;;;5072511;28;20194;-60
2023/03/28 04:38:36;;;;;;;1.75;1.10;;;20.10;70.00;;;;;;5067316;28;20270;-60
2023/03/28 04:41:07;;;;;;;1.30;0.90;;;20.10;70.00;;;;;;5065492;28;20198;-61
2023/03/28 04:43:33;;;;;;;1.40;1.00;;;20.10;70.00;;;;;;5064032;28;20617;-61
2023/03/28 04:46:00;;;;;;;1.20;1.00;;;20.10;70.00;;;;;;5069726;28;20211;-61
2023/03/28 04:48:27;;;;;;;1.70;1.15;;;20.10;70.00;;;;;;5072294;28;20195;-62
2023/03/28 04:50:55;;;;;;;2.03;1.05;;;20.10;70.00;;;;;;5069842;28;20244;-59
2023/03/28 04:53:23;;;;;;;1.60;1.13;;;20.10;70.00;;;;;;5068361;28;20209;-62
2023/03/28 04:55:50;;;;;;;2.60;1.33;;;20.10;70.80;;;;;;5070002;28;20605;-61
2023/03/28 04:58:18;;;;;;;1.35;0.90;;;20.10;70.00;;;;;;5067235;28;20198;-62
2023/03/28 05:00:45;;;;;;;1.20;1.00;;;20.10;70.00;;;;;;5066427;28;20194;-58
2023/03/28 05:03:17;;;;;;;1.48;1.05;;;20.10;70.00;;;;;;5071795;28;20878;-61
2023/03/28 05:05:44;;;;;;;2.60;1.13;;;20.10;70.00;;;;;;5064972;28;20225;-61
2023/03/28 05:08:11;;;;;;;1.35;0.98;;;20.10;70.00;;;;;;5066016;28;20207;-61
2023/03/28 05:10:40;;;;;;;2.03;1.20;;;20.10;70.00;;;;;;5061320;28;21761;-61
2023/03/28 05:13:06;;;;;;;1.80;1.20;;;20.10;70.00;;;;;;5062593;28;20587;-62
2023/03/28 05:15:33;;;;;;;1.30;1.00;;;20.10;70.00;;;;;;5069162;28;20261;-62
2023/03/28 05:18:00;;;;;;;1.75;1.10;;;20.10;70.00;;;;;;5065720;28;20191;-61
2023/03/28 05:20:27;;;;;;;1.45;1.13;;;20.10;70.00;;;;;;5069482;28;20617;-61
2023/03/28 05:22:54;;;;;;;3.55;1.10;;;20.10;70.00;;;;;;5069627;28;20242;-61
2023/03/28 05:25:21;;;;;;;1.20;0.90;;;20.10;70.70;;;;;;5064847;28;20227;-61
2023/03/28 05:27:50;;;;;;;1.13;0.93;;;20.10;70.00;;;;;;5067694;28;20285;-61
2023/03/28 05:30:16;;;;;;;1.42;0.90;;;20.10;70.00;;;;;;5069469;28;20289;-62
2023/03/28 05:32:43;;;;;;;1.30;0.90;;;20.10;70.20;;;;;;5070126;28;20289;-61
2023/03/28 05:35:12;;;;;;;1.83;1.00;;;20.10;70.40;;;;;;5065116;28;20196;-60
2023/03/28 05:37:39;;;;;;;1.98;1.75;;;20.10;70.40;;;;;;5064972;28;20260;-61
2023/03/28 05:40:09;;;;;;;2.15;1.17;;;20.10;70.50;;;;;;5065429;28;20201;-62
2023/03/28 05:42:37;;;;;;;1.33;0.82;;;20.10;70.50;;;;;;5066441;28;20201;-62
2023/03/28 05:45:06;;;;;;;2.20;1.33;;;20.10;70.50;;;;;;5068561;28;20221;-64
2023/03/28 05:47:33;;;;;;;2.17;1.30;;;20.10;70.50;;;;;;5071319;28;20247;-59
2023/03/28 05:50:00;;;;;;;1.65;1.30;;;20.10;70.50;;;;;;5070245;28;20249;-61
2023/03/28 05:52:26;;;;;;;1.83;1.27;;;20.10;70.50;;;;;;5068299;28;20623;-61
2023/03/28 05:54:54;;;;;;;1.30;0.90;;;20.10;71.30;;;;;;5066959;28;20195;-61
2023/03/28 05:57:22;;;;;;;1.40;1.10;;;20.00;70.40;;;;;;5059687;28;20223;-59
2023/03/28 05:59:49;;;;;;;2.65;0.80;;;20.10;70.40;;;;;;5069522;28;20248;-61
2023/03/28 06:02:19;;;;;;;1.10;0.90;;;20.10;70.30;;;;;;5068169;28;20194;-59
2023/03/28 06:04:48;;;;;;;1.33;1.02;;;20.10;70.30;;;;;;5062904;28;20289;-60
2023/03/28 06:07:15;;;;;;;1.40;0.90;;;20.10;70.10;;;;;;5066212;28;20601;-60
2023/03/28 06:09:42;;;;;;;1.30;1.00;;;20.10;70.10;;;;;;5068562;28;20198;-61
2023/03/28 06:12:08;;;;;;;1.30;0.80;;;20.10;70.10;;;;;;5065783;28;20199;-60
2023/03/28 06:14:35;;;;;;;1.70;1.23;;;20.10;70.10;;;;;;5063858;28;20253;-65
2023/03/28 06:17:02;;;;;;;1.77;1.13;;;20.10;70.00;;;;;;5061701;28;20621;-64
2023/03/28 06:19:30;;;;;;;1.58;0.80;;;20.10;70.20;;;;;;5073839;28;20205;-60
2023/03/28 06:21:56;;;;;;;1.00;0.70;;;20.10;70.00;;;;;;5055449;28;20215;-61
2023/03/28 06:24:23;;;;;;;2.38;1.10;;;20.20;70.10;;;;;;5059579;28;20720;-58
2023/03/28 06:26:50;;;;;;;2.33;1.08;;;20.20;70.10;;;;;;5067454;28;20222;-63
2023/03/28 06:29:18;;;;;;;1.02;0.90;;;20.20;70.00;;;;;;5058747;28;20231;-60
2023/03/28 06:31:45;;;;;;;1.30;1.00;;;20.20;70.10;;;;;;5057926;28;20285;-61
2023/03/28 06:34:11;;;;;;;2.95;1.15;;;20.10;70.60;;;;;;5064474;28;20194;-61
2023/03/28 06:36:39;;;;;;;1.55;1.00;;;20.10;69.60;;;;;;5061464;28;20663;-61
2023/03/28 06:39:06;;;;;;;1.80;1.02;;;20.10;69.60;;;;;;5064234;28;20213;-61
2023/03/28 06:41:33;;;;;;;1.58;0.98;;;20.10;69.60;;;;;;5067763;28;20192;-58
2023/03/28 06:44:00;;;;;;;1.23;1.00;;;20.10;69.60;;;;;;5060715;28;20216;-62
2023/03/28 06:46:27;;;;;;;1.67;1.05;;;20.10;69.60;;;;;;5065769;28;20218;-60
2023/03/28 06:48:53;;;;;;;3.25;1.65;;;20.10;69.50;;;;;;5063752;28;20214;-59
2023/03/28 06:51:20;;;;;;;1.20;0.82;;;20.10;69.50;;;;;;5068478;28;20199;-62
2023/03/28 06:53:48;;;;;;;1.23;0.95;;;20.20;69.60;;;;;;5065168;28;20256;-60
2023/03/28 06:56:15;;;;;;;1.83;1.30;;;20.20;69.60;;;;;;5060443;28;20254;-63
2023/03/28 06:58:41;;;;;;;1.10;0.93;;;20.20;69.70;;;;;;5057963;28;20203;-60
2023/03/28 07:01:08;;;;;;;1.33;0.90;;;20.20;69.70;;;;;;5064017;28;20597;-61
2023/03/28 07:03:35;;;;;;;1.15;0.95;;;20.20;69.60;;;;;;5067778;28;20191;-60
2023/03/28 07:06:05;;;;;;;1.45;0.90;;;20.20;69.60;;;;;;5066539;28;20617;-62
2023/03/28 07:08:32;;;;;;;1.35;1.15;;;20.20;69.70;;;;;;5069470;28;20737;-60
2023/03/28 07:11:00;;;;;;;1.50;1.00;;;20.20;69.70;;;;;;5057171;28;20191;-64
2023/03/28 07:13:26;;;;;;;1.30;1.00;;;20.20;69.60;;;;;;5062801;28;20281;-60
2023/03/28 07:16:00;;;;;;;1.83;1.10;;;20.20;69.50;;;;;;5059146;28;20233;-59
2023/03/28 07:18:26;;;;;;;1.55;1.15;;;20.20;69.70;;;;;;5065154;28;20198;-60
2023/03/28 07:20:54;;;;;;;1.92;1.17;;;20.20;69.70;;;;;;5065806;28;20206;-63
2023/03/28 07:23:20;;;;;;;1.00;0.90;;;20.20;69.70;;;;;;5065497;28;20218;-60
2023/03/28 07:25:47;;;;;;;4.43;1.10;;;20.20;70.40;;;;;;5066788;28;20249;-60
2023/03/28 07:28:15;;;;;;;2.05;1.48;;;20.20;69.70;;;;;;5061331;28;20261;-60
2023/03/28 07:30:42;;;;;;;4.72;1.13;;;20.20;69.60;;;;;;5064695;28;20604;-60
2023/03/28 07:33:08;;;;;;;2.20;1.10;;;20.20;69.50;;;;;;5063200;28;20760;-61
2023/03/28 07:35:39;;;;;;;9.32;1.08;;;20.20;69.30;;;;;;5064837;28;20230;-62
2023/03/28 07:38:06;;;;;;;2.35;1.17;;;20.30;69.30;;;;;;5069006;28;20204;-60
2023/03/28 07:40:33;;;;;;;2.13;1.27;;;20.30;69.10;;;;;;5068128;28;20203;-62
2023/03/28 07:43:00;;;;;;;8.23;1.60;;;20.30;69.00;;;;;;5062607;28;20202;-62
2023/03/28 07:45:29;;;;;;;4.97;1.40;;;20.30;68.90;;;;;;5069316;28;20750;-63
2023/03/28 07:47:56;;;;;;;4.50;1.00;;;20.40;68.90;;;;;;5071888;28;20209;-65
2023/03/28 07:50:22;;;;;;;6.18;1.50;;;20.40;68.90;;;;;;5061495;28;20568;-65
2023/03/28 07:52:50;;;;;;;8.00;1.35;;;20.40;69.00;;;;;;5067760;28;20720;-63
2023/03/28 07:55:17;;;;;;;16.38;1.70;;;20.40;69.20;;;;;;5065258;28;20192;-65
2023/03/28 07:57:45;;;;;;;1.90;1.10;;;20.40;69.30;;;;;;5063109;28;20221;-63
2023/03/28 08:00:12;;;;;;;4.90;1.00;;;20.40;69.40;;;;;;5067196;28;20663;-63
2023/03/28 08:02:40;;;;;;;1.58;1.10;;;20.40;69.30;;;;;;5071318;28;20226;-64
2023/03/28 08:05:07;;;;;;;4.88;1.45;;;20.40;69.40;;;;;;5066893;28;20745;-64
2023/03/28 08:07:34;;;;;;;5.75;1.35;;;20.40;69.40;;;;;;5059324;28;20269;-63
2023/03/28 08:10:01;;;;;;;1.40;1.00;;;20.40;69.50;;;;;;5068113;28;20195;-64
2023/03/28 08:12:29;;;;;;;2.45;1.15;;;20.40;69.40;;;;;;5068258;28;20237;-65
2023/03/28 08:14:55;;;;;;;1.70;1.05;;;20.40;69.40;;;;;;5070345;28;20194;-63
2023/03/28 08:17:22;;;;;;;4.60;1.40;;;20.40;69.50;;;;;;5071332;28;20245;-63
2023/03/28 08:19:50;;;;;;;1.70;1.10;;;20.40;69.50;;;;;;5071931;28;21662;-64
2023/03/28 08:22:17;;;;;;;1.25;1.02;;;20.40;69.50;;;;;;5071239;28;20273;-67
2023/03/28 08:24:44;;;;;;;1.40;1.27;;;20.40;70.30;;;;;;5068142;28;20203;-63
2023/03/28 08:27:11;;;;;;;3.25;1.60;;;20.40;69.60;;;;;;5060608;28;20225;-63
2023/03/28 08:29:37;;;;;;;3.78;1.38;;;20.40;69.60;;;;;;5064327;28;20199;-65
2023/03/28 08:32:06;;;;;;;2.15;1.00;;;20.40;69.60;;;;;;5067042;28;20207;-63
2023/03/28 08:34:33;;;;;;;1.77;1.42;;;20.40;69.60;;;;;;5062855;28;20552;-62
2023/03/28 08:37:01;;;;;;;1.80;1.13;;;20.40;69.60;;;;;;5057791;28;20622;-65
2023/03/28 08:39:27;;;;;;;3.97;1.30;;;20.40;69.60;;;;;;5071707;28;20245;-64
2023/03/28 08:42:27;;;;;;;1.95;1.15;;;20.40;69.60;;;;;;5066133;28;20203;-63
2023/03/28 08:45:20;;;;;;;2.65;1.17;;;20.40;69.60;;;;;;5057266;28;20203;-63
2023/03/28 08:47:58;;;;;;;1.92;0.93;;;20.40;69.60;;;;;;5070261;28;20314;-63
2023/03/28 08:50:29;;;;;;;1.73;1.30;;;20.40;69.60;;;;;;5063279;28;20190;-63
2023/03/28 08:52:58;;;;;;;1.83;1.10;;;20.40;69.60;;;;;;5061462;28;20199;-64
2023/03/28 08:55:32;;;;;;;3.47;1.77;;;20.40;69.70;;;;;;5064289;28;20682;-63
2023/03/28 08:57:59;;;;;;;1.60;0.90;;;20.40;69.70;;;;;;5065151;28;20199;-63
2023/03/28 09:00:29;;;;;;;2.05;1.67;;;20.40;69.70;;;;;;5062464;28;20267;-62
2023/03/28 09:02:57;;;;;;;1.40;1.20;;;20.40;69.70;;;;;;5060502;28;20187;-64
2023/03/28 09:05:33;;;;;;;1.50;1.10;;;20.40;69.70;;;;;;5066322;28;20199;-63
2023/03/28 09:08:14;;;;;;;1.70;1.30;;;20.40;69.70;;;;;;5065694;28;20218;-63
2023/03/28 09:10:44;;;;;;;1.50;0.90;;;20.40;69.70;;;;;;5062708;28;20204;-63
2023/03/28 09:13:27;;;;;;;4.15;1.40;;;20.40;69.70;;;;;;5059842;28;20774;-63
2023/03/28 09:16:07;;;;;;;4.38;1.48;;;20.40;69.70;;;;;;5064821;28;20553;-65
2023/03/28 09:18:55;;;;;;;1.77;1.20;;;20.40;69.60;;;;;;5065787;28;20201;-63
2023/03/28 09:21:29;;;;;;;5.25;1.27;;;20.40;69.40;;;;;;5053783;28;20583;-69
2023/03/28 09:24:20;;;;;;;2.80;1.65;;;20.40;69.20;;;;;;5058711;28;20192;-66
2023/03/28 09:26:52;;;;;;;2.35;1.77;;;20.40;69.00;;;;;;5062186;28;20222;-60
2023/03/28 09:29:23;;;;;;;1.83;1.25;;;20.40;69.00;;;;;;5062995;28;20543;-59
2023/03/28 09:31:55;;;;;;;1.83;1.40;;;20.40;69.10;;;;;;5058088;28;20225;-59
2023/03/28 09:34:26;;;;;;;2.28;1.30;;;20.50;69.20;;;;;;5059048;28;20205;-65
2023/03/28 09:36:57;;;;;;;4.47;1.90;;;20.50;69.10;;;;;;5072377;28;20638;-59
2023/03/28 09:39:35;;;;;;;2.75;1.33;;;20.50;69.20;;;;;;5065035;28;20224;-66
2023/03/28 09:42:08;;;;;;;2.55;1.30;;;20.60;69.30;;;;;;5065923;28;20203;-63
2023/03/28 09:44:41;;;;;;;2.95;1.38;;;20.60;69.40;;;;;;5056297;28;20227;-61
2023/03/28 09:47:12;;;;;;;1.77;1.35;;;20.60;69.50;;;;;;5065381;28;20287;-61
2023/03/28 09:49:39;;;;;;;1.83;1.30;;;20.60;69.60;;;;;;5064037;28;21403;-62
2023/03/28 09:52:15;;;;;;;2.70;1.57;;;20.60;69.70;;;;;;5063154;28;20217;-66
2023/03/28 09:54:43;;;;;;;1.40;1.10;;;20.60;69.70;;;;;;5066164;28;20599;-68
2023/03/28 09:57:10;;;;;;;2.17;1.52;;;20.60;69.70;;;;;;5059686;28;20548;-64
2023/03/28 09:59:37;;;;;;;2.33;1.23;;;20.70;69.90;;;;;;5063960;28;20199;-67
2023/03/28 10:02:05;;;;;;;2.13;1.13;;;20.70;70.00;;;;;;5065571;28;20195;-70
2023/03/28 10:04:35;;;;;;;1.92;1.38;;;20.70;70.00;;;;;;5064956;28;20191;-63
2023/03/28 10:07:29;;;;;;;2.88;1.80;;;20.70;70.10;;;;;;5062454;28;20212;-68
2023/03/28 10:10:01;;;;;;;2.60;1.80;;;20.70;69.60;;;;;;5060887;28;20279;-64
2023/03/28 10:12:33;;;;;;;1.60;1.13;;;20.70;69.50;;;;;;5053340;28;20654;-63
2023/03/28 10:15:00;;;;;;;7.10;1.70;;;20.60;69.40;;;;;;5058599;28;20586;-63
2023/03/28 10:17:29;;;;;;;3.72;1.50;;;20.70;69.90;;;;;;5058678;28;20605;-65
2023/03/28 10:20:01;;;;;;;1.73;1.33;;;20.70;70.00;;;;;;5054520;28;20190;-65
2023/03/28 10:22:31;;;;;;;2.22;2.03;;;20.70;70.00;;;;;;5056096;28;20637;-65
2023/03/28 10:24:59;;;;;;;2.47;1.60;;;20.70;70.00;;;;;;5056435;28;20200;-59
2023/03/28 10:27:30;;;;;;;2.67;1.77;;;20.70;69.90;;;;;;5057413;28;20532;-62
2023/03/28 10:30:07;;;;;;;1.55;1.02;;;20.70;70.00;;;;;;5059424;28;20460;-58
2023/03/28 10:32:34;;;;;;;1.98;1.20;;;20.70;70.00;;;;;;5057725;28;21017;-56
2023/03/28 10:35:02;;;;;;;2.10;1.75;;;20.70;70.00;;;;;;5058271;28;20194;-61
2023/03/28 10:37:30;;;;;;;2.10;1.40;;;20.70;70.00;;;;;;5056696;28;22587;-62
2023/03/28 10:40:05;;;;;;;2.03;1.33;;;20.70;70.00;;;;;;5062830;28;20205;-64
2023/03/28 10:42:42;;;;;;;1.73;1.20;;;20.70;70.10;;;;;;5055726;28;20468;-57
2023/03/28 10:45:20;;;;;;;1.40;1.30;;;20.70;70.60;;;;;;5060112;28;20452;-65
2023/03/28 10:47:47;;;;;;;1.80;1.17;;;20.80;70.40;;;;;;5061768;28;20920;-61
2023/03/28 10:50:24;;;;;;;2.00;1.40;;;20.80;70.40;;;;;;5067282;28;20194;-61
2023/03/28 10:52:54;;;;;;;1.55;1.33;;;20.80;70.40;;;;;;5063269;28;20236;-62
2023/03/28 10:55:26;;;;;;;1.73;1.40;;;20.80;70.40;;;;;;5065439;28;20630;-66
2023/03/28 10:58:02;;;;;;;1.65;1.10;;;20.80;70.40;;;;;;5057150;28;20515;-64
2023/03/28 11:00:33;;;;;;;5.17;1.40;;;20.80;70.50;;;;;;5064822;28;20663;-62
2023/03/28 11:03:17;;;;;;;1.57;1.20;;;20.80;70.50;;;;;;5065057;28;21037;-59
2023/03/28 11:05:51;;;;;;;2.22;1.20;;;20.80;70.50;;;;;;5060790;28;20453;-61
2023/03/28 11:08:31;;;;;;;1.70;1.30;;;20.90;70.60;;;;;;5055852;28;20212;-65
2023/03/28 11:11:10;;;;;;;2.65;1.60;;;20.80;70.60;;;;;;5046795;28;20968;-64
2023/03/28 11:13:45;;;;;;;2.65;1.70;;;20.90;70.70;;;;;;5047706;28;20196;-65
2023/03/28 11:16:20;;;;;;;2.05;1.25;;;20.90;70.70;;;;;;5043921;28;20195;-63
2023/03/28 11:19:04;;;;;;;1.95;1.70;;;20.90;70.70;;;;;;5050929;28;20194;-65
2023/03/28 11:21:36;;;;;;;1.73;1.23;;;20.90;70.70;;;;;;5058573;28;20215;-65
2023/03/28 11:24:18;;;;;;;1.45;1.05;;;20.90;70.90;;;;;;5058044;28;20194;-66
2023/03/28 11:26:54;;;;;;;1.60;1.20;;;20.90;70.90;;;;;;5060933;28;20194;-66
2023/03/28 11:29:32;;;;;;;2.10;1.30;;;20.90;70.90;;;;;;5055475;28;20802;-67
2023/03/28 11:32:07;;;;;;;2.23;1.40;;;20.90;70.90;;;;;;5060547;28;20198;-67
2023/03/28 11:34:38;;;;;;;1.47;1.20;;;20.90;70.90;;;;;;5058551;28;20597;-64
2023/03/28 11:37:12;;;;;;;2.97;1.70;;;20.90;70.90;;;;;;5054442;28;20515;-69
2023/03/28 11:39:43;;;;;;;2.28;1.15;;;20.90;70.70;;;;;;5064896;28;20677;-64
2023/03/28 11:42:19;;;;;;;2.20;1.40;;;20.90;70.90;;;;;;5052907;28;20300;-68
2023/03/28 11:44:54;;;;;;;2.20;1.40;;;20.90;70.90;;;;;;5064597;28;22196;-63
2023/03/28 11:47:26;;;;;;;1.80;1.47;;;20.80;70.70;;;;;;5067333;28;20214;-63
2023/03/28 11:49:59;;;;;;;3.33;1.50;;;20.80;70.30;;;;;;5069597;28;20863;-61
2023/03/28 11:52:31;;;;;;;1.60;1.10;;;20.80;70.10;;;;;;5067416;28;20461;-63
2023/03/28 11:55:03;;;;;;;1.50;1.02;;;20.80;69.80;;;;;;5067756;28;20199;-61
2023/03/28 11:57:38;;;;;;;3.87;1.37;;;20.80;69.60;;;;;;5067365;28;20199;-61
2023/03/28 12:00:10;;;;;;;1.30;1.10;;;20.80;69.70;;;;;;5062234;28;20959;-68
2023/03/28 12:02:41;;;;;;;2.40;1.43;;;20.70;69.60;;;;;;5067960;28;20522;-66
2023/03/28 12:05:17;;;;;;;1.73;1.30;;;20.80;69.70;;;;;;5067878;28;20493;-63
2023/03/28 12:07:50;;;;;;;2.60;1.57;;;20.80;69.60;;;;;;5069182;28;20479;-62
2023/03/28 12:10:22;;;;;;;3.50;1.67;;;20.80;69.60;;;;;;5068298;28;20511;-62
2023/03/28 12:13:00;;;;;;;1.57;1.20;;;20.90;69.60;;;;;;5063587;28;20453;-62
2023/03/28 12:15:34;;;;;;;1.70;1.17;;;20.90;69.60;;;;;;5071455;28;20885;-65
2023/03/28 12:18:04;;;;;;;1.67;1.17;;;20.90;69.50;;;;;;5069060;28;20457;-66
2023/03/28 12:20:37;;;;;;;1.60;1.17;;;21.00;69.80;;;;;;5064935;28;20452;-67
2023/03/28 12:23:11;;;;;;;2.80;1.63;;;21.00;69.80;;;;;;5063190;28;20476;-67
2023/03/28 12:25:43;;;;;;;2.10;1.77;;;21.00;69.80;;;;;;5067361;28;20871;-62
2023/03/28 12:28:22;;;;;;;2.80;1.20;;;21.00;69.80;;;;;;5068044;28;20484;-63
2023/03/28 12:30:59;;;;;;;1.60;1.20;;;21.00;69.80;;;;;;5059687;28;20461;-62
2023/03/28 12:33:33;;;;;;;1.73;1.03;;;21.00;70.60;;;;;;5070305;28;20465;-63
2023/03/28 12:36:07;;;;;;;3.37;0.90;;;21.00;69.90;;;;;;5065433;28;20871;-58
2023/03/28 12:38:39;;;;;;;1.93;1.20;;;21.00;70.00;;;;;;5063079;28;20569;-64
2023/03/28 12:41:08;;;;;;;1.50;1.35;;;21.00;70.00;;;;;;5064368;28;20482;-65
2023/03/28 12:43:45;;;;;;;1.30;0.97;;;21.00;70.10;;;;;;5067650;28;20206;-66
2023/03/28 12:46:15;;;;;;;1.57;1.10;;;21.00;70.10;;;;;;5066472;28;20526;-59
2023/03/28 12:48:45;;;;;;;1.95;1.30;;;21.00;70.20;;;;;;5064690;28;20554;-65
2023/03/28 12:51:15;;;;;;;2.53;1.10;;;21.00;70.20;;;;;;5066061;28;20195;-67
2023/03/28 12:53:46;;;;;;;1.60;1.40;;;21.00;70.30;;;;;;5060905;28;20465;-65
2023/03/28 12:56:14;;;;;;;2.07;1.27;;;21.00;70.40;;;;;;5060958;28;20460;-66
2023/03/28 12:58:45;;;;;;;1.40;1.00;;;21.00;70.40;;;;;;5064403;28;20457;-67
2023/03/28 13:01:35;;;;;;;1.70;1.10;;;21.00;70.50;;;;;;5079342;28;20388;-64
2023/03/28 13:04:25;;;;;;;1.80;1.03;;;21.00;70.50;;;;;;5065136;28;20819;-62
2023/03/28 13:07:03;;;;;;;1.43;1.00;;;21.10;70.60;;;;;;5062542;28;20453;-64